sensor_id;sensor_type;location;lat;lon;timestamp;P1;durP1;ratioP1;P2;durP2;ratioP2
72960;SDS011;61141;46.204;19.774;2022-07-23T00:02:33;11.98;;;1.90;;
72960;SDS011;61141;46.204;19.774;2022-07-23T00:05:36;3.10;;;1.05;;
72960;SDS011;61141;46.204;19.774;2022-07-23T00:08:39;4.03;;;1.67;;
72960;SDS011;61141;46.204;19.774;2022-07-23T00:11:42;4.20;;;1.90;;
72960;SDS011;61141;46.204;19.774;2022-07-23T00:14:45;3.72;;;1.50;;
72960;SDS011;61141;46.204;19.774;2022-07-23T00:17:48;3.33;;;1.35;;
72960;SDS011;61141;46.204;19.774;2022-07-23T00:20:51;3.87;;;1.87;;
72960;SDS011;61141;46.204;19.774;2022-07-23T00:23:54;5.60;;;1.95;;
72960;SDS011;61141;46.204;19.774;2022-07-23T00:26:57;3.40;;;1.33;;
72960;SDS011;61141;46.204;19.774;2022-07-23T00:30:00;3.83;;;1.73;;
72960;SDS011;61141;46.204;19.774;2022-07-23T00:33:04;6.95;;;2.80;;
72960;SDS011;61141;46.204;19.774;2022-07-23T00:36:09;2.92;;;0.95;;
72960;SDS011;61141;46.204;19.774;2022-07-23T00:39:11;3.75;;;1.40;;
72960;SDS011;61141;46.204;19.774;2022-07-23T00:42:14;3.40;;;1.10;;
72960;SDS011;61141;46.204;19.774;2022-07-23T00:45:17;3.35;;;1.25;;
72960;SDS011;61141;46.204;19.774;2022-07-23T00:48:21;3.45;;;1.35;;
72960;SDS011;61141;46.204;19.774;2022-07-23T00:51:24;3.28;;;1.20;;
72960;SDS011;61141;46.204;19.774;2022-07-23T00:54:27;3.53;;;1.42;;
72960;SDS011;61141;46.204;19.774;2022-07-23T00:57:30;2.87;;;0.90;;
72960;SDS011;61141;46.204;19.774;2022-07-23T01:00:34;3.97;;;1.80;;
72960;SDS011;61141;46.204;19.774;2022-07-23T01:03:36;3.05;;;1.00;;
72960;SDS011;61141;46.204;19.774;2022-07-23T01:06:40;4.15;;;1.73;;
72960;SDS011;61141;46.204;19.774;2022-07-23T01:09:44;3.15;;;1.12;;
72960;SDS011;61141;46.204;19.774;2022-07-23T01:12:48;3.03;;;0.90;;
72960;SDS011;61141;46.204;19.774;2022-07-23T01:15:50;3.22;;;1.20;;
72960;SDS011;61141;46.204;19.774;2022-07-23T01:18:53;3.70;;;1.40;;
72960;SDS011;61141;46.204;19.774;2022-07-23T01:21:57;3.33;;;1.30;;
72960;SDS011;61141;46.204;19.774;2022-07-23T01:25:00;3.72;;;1.60;;
72960;SDS011;61141;46.204;19.774;2022-07-23T01:28:03;3.10;;;1.23;;
72960;SDS011;61141;46.204;19.774;2022-07-23T01:31:06;3.10;;;1.20;;
72960;SDS011;61141;46.204;19.774;2022-07-23T01:34:10;3.65;;;1.42;;
72960;SDS011;61141;46.204;19.774;2022-07-23T01:37:13;3.25;;;1.25;;
72960;SDS011;61141;46.204;19.774;2022-07-23T01:40:16;3.60;;;1.58;;
72960;SDS011;61141;46.204;19.774;2022-07-23T01:43:21;4.07;;;1.77;;
72960;SDS011;61141;46.204;19.774;2022-07-23T01:46:26;2.83;;;0.82;;
72960;SDS011;61141;46.204;19.774;2022-07-23T01:49:30;3.70;;;1.62;;
72960;SDS011;61141;46.204;19.774;2022-07-23T01:52:33;3.80;;;1.62;;
72960;SDS011;61141;46.204;19.774;2022-07-23T01:55:36;3.97;;;1.90;;
72960;SDS011;61141;46.204;19.774;2022-07-23T01:58:39;3.03;;;1.13;;
72960;SDS011;61141;46.204;19.774;2022-07-23T02:01:42;3.60;;;1.60;;
72960;SDS011;61141;46.204;19.774;2022-07-23T02:04:45;4.10;;;1.73;;
72960;SDS011;61141;46.204;19.774;2022-07-23T02:07:50;3.90;;;1.80;;
72960;SDS011;61141;46.204;19.774;2022-07-23T02:10:53;3.35;;;1.20;;
72960;SDS011;61141;46.204;19.774;2022-07-23T02:13:56;3.47;;;1.30;;
72960;SDS011;61141;46.204;19.774;2022-07-23T02:16:59;3.75;;;1.65;;
72960;SDS011;61141;46.204;19.774;2022-07-23T02:20:02;3.65;;;1.50;;
72960;SDS011;61141;46.204;19.774;2022-07-23T02:23:05;3.37;;;1.37;;
72960;SDS011;61141;46.204;19.774;2022-07-23T02:26:09;4.10;;;2.03;;
72960;SDS011;61141;46.204;19.774;2022-07-23T02:29:12;3.37;;;1.27;;
72960;SDS011;61141;46.204;19.774;2022-07-23T02:32:15;4.72;;;1.92;;
72960;SDS011;61141;46.204;19.774;2022-07-23T02:35:18;3.60;;;1.08;;
72960;SDS011;61141;46.204;19.774;2022-07-23T02:38:21;3.75;;;1.40;;
72960;SDS011;61141;46.204;19.774;2022-07-23T02:41:24;3.08;;;1.08;;
72960;SDS011;61141;46.204;19.774;2022-07-23T02:44:27;3.60;;;1.50;;
72960;SDS011;61141;46.204;19.774;2022-07-23T02:47:31;3.53;;;1.12;;
72960;SDS011;61141;46.204;19.774;2022-07-23T02:50:35;6.20;;;2.60;;
72960;SDS011;61141;46.204;19.774;2022-07-23T02:53:38;4.50;;;2.20;;
72960;SDS011;61141;46.204;19.774;2022-07-23T02:56:42;3.00;;;1.05;;
72960;SDS011;61141;46.204;19.774;2022-07-23T02:59:46;3.33;;;1.27;;
72960;SDS011;61141;46.204;19.774;2022-07-23T03:02:49;4.15;;;1.70;;
72960;SDS011;61141;46.204;19.774;2022-07-23T03:05:52;3.50;;;1.20;;
72960;SDS011;61141;46.204;19.774;2022-07-23T03:08:55;3.10;;;1.17;;
72960;SDS011;61141;46.204;19.774;2022-07-23T03:11:58;4.37;;;1.90;;
72960;SDS011;61141;46.204;19.774;2022-07-23T03:15:01;4.10;;;1.37;;
72960;SDS011;61141;46.204;19.774;2022-07-23T03:18:04;3.00;;;1.00;;
72960;SDS011;61141;46.204;19.774;2022-07-23T03:21:07;3.08;;;1.05;;
72960;SDS011;61141;46.204;19.774;2022-07-23T03:24:11;3.80;;;1.62;;
72960;SDS011;61141;46.204;19.774;2022-07-23T03:27:15;3.47;;;1.37;;
72960;SDS011;61141;46.204;19.774;2022-07-23T03:30:18;3.47;;;1.23;;
72960;SDS011;61141;46.204;19.774;2022-07-23T03:33:21;3.15;;;1.30;;
72960;SDS011;61141;46.204;19.774;2022-07-23T03:36:24;3.65;;;1.52;;
72960;SDS011;61141;46.204;19.774;2022-07-23T03:39:29;2.72;;;0.73;;
72960;SDS011;61141;46.204;19.774;2022-07-23T03:42:31;3.35;;;1.40;;
72960;SDS011;61141;46.204;19.774;2022-07-23T03:45:37;2.90;;;0.90;;
72960;SDS011;61141;46.204;19.774;2022-07-23T03:48:40;3.28;;;1.20;;
72960;SDS011;61141;46.204;19.774;2022-07-23T03:51:43;3.55;;;1.50;;
72960;SDS011;61141;46.204;19.774;2022-07-23T03:54:47;3.35;;;1.15;;
72960;SDS011;61141;46.204;19.774;2022-07-23T03:57:50;3.55;;;1.37;;
72960;SDS011;61141;46.204;19.774;2022-07-23T04:00:53;3.13;;;1.33;;
72960;SDS011;61141;46.204;19.774;2022-07-23T04:03:56;3.65;;;1.25;;
72960;SDS011;61141;46.204;19.774;2022-07-23T04:06:59;2.67;;;0.73;;
72960;SDS011;61141;46.204;19.774;2022-07-23T04:10:04;2.90;;;0.85;;
72960;SDS011;61141;46.204;19.774;2022-07-23T04:13:07;2.53;;;0.70;;
72960;SDS011;61141;46.204;19.774;2022-07-23T04:16:10;3.50;;;0.90;;
72960;SDS011;61141;46.204;19.774;2022-07-23T04:19:13;4.87;;;1.65;;
72960;SDS011;61141;46.204;19.774;2022-07-23T04:22:19;4.18;;;1.45;;
72960;SDS011;61141;46.204;19.774;2022-07-23T04:25:21;4.20;;;1.23;;
72960;SDS011;61141;46.204;19.774;2022-07-23T04:28:24;3.15;;;1.20;;
72960;SDS011;61141;46.204;19.774;2022-07-23T04:31:27;3.23;;;1.20;;
72960;SDS011;61141;46.204;19.774;2022-07-23T04:34:38;3.30;;;1.20;;
72960;SDS011;61141;46.204;19.774;2022-07-23T04:37:42;4.28;;;1.77;;
72960;SDS011;61141;46.204;19.774;2022-07-23T04:40:45;3.28;;;1.20;;
72960;SDS011;61141;46.204;19.774;2022-07-23T04:43:48;3.45;;;1.20;;
72960;SDS011;61141;46.204;19.774;2022-07-23T04:46:51;3.50;;;1.57;;
72960;SDS011;61141;46.204;19.774;2022-07-23T04:49:56;4.97;;;1.80;;
72960;SDS011;61141;46.204;19.774;2022-07-23T04:52:59;3.62;;;1.20;;
72960;SDS011;61141;46.204;19.774;2022-07-23T04:56:02;3.33;;;1.20;;
72960;SDS011;61141;46.204;19.774;2022-07-23T04:59:06;3.92;;;1.42;;
72960;SDS011;61141;46.204;19.774;2022-07-23T05:02:09;7.00;;;1.60;;
72960;SDS011;61141;46.204;19.774;2022-07-23T05:05:12;4.60;;;1.73;;
72960;SDS011;61141;46.204;19.774;2022-07-23T05:08:15;4.10;;;1.80;;
72960;SDS011;61141;46.204;19.774;2022-07-23T05:11:18;6.25;;;1.75;;
72960;SDS011;61141;46.204;19.774;2022-07-23T05:14:28;3.72;;;1.42;;
72960;SDS011;61141;46.204;19.774;2022-07-23T05:17:31;3.53;;;1.40;;
72960;SDS011;61141;46.204;19.774;2022-07-23T05:20:34;3.60;;;1.33;;
72960;SDS011;61141;46.204;19.774;2022-07-23T05:23:37;4.60;;;2.53;;
72960;SDS011;61141;46.204;19.774;2022-07-23T05:26:40;4.25;;;1.98;;
72960;SDS011;61141;46.204;19.774;2022-07-23T05:29:43;3.53;;;1.40;;
72960;SDS011;61141;46.204;19.774;2022-07-23T05:32:46;3.17;;;1.20;;
72960;SDS011;61141;46.204;19.774;2022-07-23T05:35:50;3.72;;;1.40;;
72960;SDS011;61141;46.204;19.774;2022-07-23T05:38:53;5.15;;;1.65;;
72960;SDS011;61141;46.204;19.774;2022-07-23T05:41:57;3.65;;;1.40;;
72960;SDS011;61141;46.204;19.774;2022-07-23T05:45:00;5.50;;;2.47;;
72960;SDS011;61141;46.204;19.774;2022-07-23T05:48:04;4.03;;;1.93;;
72960;SDS011;61141;46.204;19.774;2022-07-23T05:51:08;4.40;;;2.20;;
72960;SDS011;61141;46.204;19.774;2022-07-23T05:54:11;3.87;;;1.67;;
72960;SDS011;61141;46.204;19.774;2022-07-23T05:57:14;5.95;;;2.47;;
72960;SDS011;61141;46.204;19.774;2022-07-23T06:00:17;4.40;;;2.03;;
72960;SDS011;61141;46.204;19.774;2022-07-23T06:03:23;3.80;;;1.70;;
72960;SDS011;61141;46.204;19.774;2022-07-23T06:06:27;4.07;;;1.87;;
72960;SDS011;61141;46.204;19.774;2022-07-23T06:09:30;4.45;;;2.20;;
72960;SDS011;61141;46.204;19.774;2022-07-23T06:12:33;4.95;;;2.08;;
72960;SDS011;61141;46.204;19.774;2022-07-23T06:15:36;4.30;;;1.92;;
72960;SDS011;61141;46.204;19.774;2022-07-23T06:18:39;3.37;;;1.37;;
72960;SDS011;61141;46.204;19.774;2022-07-23T06:21:42;3.85;;;1.73;;
72960;SDS011;61141;46.204;19.774;2022-07-23T06:24:49;5.05;;;2.60;;
72960;SDS011;61141;46.204;19.774;2022-07-23T06:27:54;4.20;;;1.98;;
72960;SDS011;61141;46.204;19.774;2022-07-23T06:30:57;4.65;;;2.33;;
72960;SDS011;61141;46.204;19.774;2022-07-23T06:34:00;4.27;;;2.10;;
72960;SDS011;61141;46.204;19.774;2022-07-23T06:37:03;8.88;;;3.05;;
72960;SDS011;61141;46.204;19.774;2022-07-23T06:40:06;3.97;;;1.85;;
72960;SDS011;61141;46.204;19.774;2022-07-23T06:43:10;4.85;;;2.55;;
72960;SDS011;61141;46.204;19.774;2022-07-23T06:46:13;4.07;;;2.08;;
72960;SDS011;61141;46.204;19.774;2022-07-23T06:49:16;4.07;;;1.77;;
72960;SDS011;61141;46.204;19.774;2022-07-23T06:52:19;5.40;;;3.35;;
72960;SDS011;61141;46.204;19.774;2022-07-23T06:55:22;5.60;;;1.65;;
72960;SDS011;61141;46.204;19.774;2022-07-23T06:58:25;5.45;;;3.30;;
72960;SDS011;61141;46.204;19.774;2022-07-23T07:01:28;4.90;;;2.58;;
72960;SDS011;61141;46.204;19.774;2022-07-23T07:04:31;3.87;;;1.60;;
72960;SDS011;61141;46.204;19.774;2022-07-23T07:07:34;6.25;;;2.12;;
72960;SDS011;61141;46.204;19.774;2022-07-23T07:10:37;5.68;;;2.35;;
72960;SDS011;61141;46.204;19.774;2022-07-23T07:13:40;4.68;;;2.40;;
72960;SDS011;61141;46.204;19.774;2022-07-23T07:16:43;4.65;;;2.55;;
72960;SDS011;61141;46.204;19.774;2022-07-23T07:19:46;4.20;;;1.93;;
72960;SDS011;61141;46.204;19.774;2022-07-23T07:22:49;5.10;;;3.12;;
72960;SDS011;61141;46.204;19.774;2022-07-23T07:25:52;4.80;;;2.60;;
72960;SDS011;61141;46.204;19.774;2022-07-23T07:28:55;5.00;;;2.35;;
72960;SDS011;61141;46.204;19.774;2022-07-23T07:31:57;4.80;;;2.70;;
72960;SDS011;61141;46.204;19.774;2022-07-23T07:35:00;7.50;;;2.13;;
72960;SDS011;61141;46.204;19.774;2022-07-23T07:38:03;4.45;;;2.33;;
72960;SDS011;61141;46.204;19.774;2022-07-23T07:41:06;4.75;;;2.62;;
72960;SDS011;61141;46.204;19.774;2022-07-23T07:44:09;4.20;;;1.98;;
72960;SDS011;61141;46.204;19.774;2022-07-23T07:47:12;5.62;;;3.37;;
72960;SDS011;61141;46.204;19.774;2022-07-23T07:50:17;4.70;;;2.47;;
72960;SDS011;61141;46.204;19.774;2022-07-23T07:53:21;4.60;;;2.12;;
72960;SDS011;61141;46.204;19.774;2022-07-23T07:56:27;4.70;;;2.60;;
72960;SDS011;61141;46.204;19.774;2022-07-23T07:59:30;4.40;;;2.30;;
72960;SDS011;61141;46.204;19.774;2022-07-23T08:02:44;6.30;;;2.62;;
72960;SDS011;61141;46.204;19.774;2022-07-23T08:05:49;4.30;;;2.30;;
72960;SDS011;61141;46.204;19.774;2022-07-23T08:08:51;4.80;;;2.35;;
72960;SDS011;61141;46.204;19.774;2022-07-23T08:11:54;4.78;;;2.62;;
72960;SDS011;61141;46.204;19.774;2022-07-23T08:14:57;4.85;;;2.50;;
72960;SDS011;61141;46.204;19.774;2022-07-23T08:18:00;4.85;;;2.75;;
72960;SDS011;61141;46.204;19.774;2022-07-23T08:21:03;4.60;;;2.60;;
72960;SDS011;61141;46.204;19.774;2022-07-23T08:24:09;4.53;;;2.37;;
72960;SDS011;61141;46.204;19.774;2022-07-23T08:27:12;4.75;;;2.65;;
72960;SDS011;61141;46.204;19.774;2022-07-23T08:30:15;4.93;;;2.80;;
72960;SDS011;61141;46.204;19.774;2022-07-23T08:33:19;4.82;;;2.53;;
72960;SDS011;61141;46.204;19.774;2022-07-23T08:36:36;4.37;;;1.70;;
72960;SDS011;61141;46.204;19.774;2022-07-23T08:39:39;4.57;;;2.30;;
72960;SDS011;61141;46.204;19.774;2022-07-23T08:42:42;4.25;;;2.22;;
72960;SDS011;61141;46.204;19.774;2022-07-23T08:45:46;4.90;;;2.95;;
72960;SDS011;61141;46.204;19.774;2022-07-23T08:48:50;4.97;;;2.85;;
72960;SDS011;61141;46.204;19.774;2022-07-23T08:51:54;4.40;;;2.37;;
72960;SDS011;61141;46.204;19.774;2022-07-23T08:54:57;5.22;;;3.03;;
72960;SDS011;61141;46.204;19.774;2022-07-23T08:58:01;4.97;;;3.10;;
72960;SDS011;61141;46.204;19.774;2022-07-23T09:01:04;7.03;;;3.37;;
72960;SDS011;61141;46.204;19.774;2022-07-23T09:04:07;4.25;;;2.15;;
72960;SDS011;61141;46.204;19.774;2022-07-23T09:07:10;5.17;;;3.00;;
72960;SDS011;61141;46.204;19.774;2022-07-23T09:10:13;6.15;;;3.08;;
72960;SDS011;61141;46.204;19.774;2022-07-23T09:16:54;4.40;;;2.33;;
72960;SDS011;61141;46.204;19.774;2022-07-23T09:20:07;4.82;;;2.70;;
72960;SDS011;61141;46.204;19.774;2022-07-23T09:23:11;4.30;;;2.00;;
72960;SDS011;61141;46.204;19.774;2022-07-23T09:29:32;5.22;;;3.40;;
72960;SDS011;61141;46.204;19.774;2022-07-23T09:32:35;5.15;;;3.15;;
72960;SDS011;61141;46.204;19.774;2022-07-23T09:38:48;9.33;;;2.57;;
72960;SDS011;61141;46.204;19.774;2022-07-23T09:41:52;5.43;;;3.53;;
72960;SDS011;61141;46.204;19.774;2022-07-23T09:44:56;5.05;;;3.08;;
72960;SDS011;61141;46.204;19.774;2022-07-23T09:51:33;4.65;;;2.53;;
72960;SDS011;61141;46.204;19.774;2022-07-23T09:54:46;5.47;;;2.87;;
72960;SDS011;61141;46.204;19.774;2022-07-23T09:57:49;5.12;;;3.15;;
72960;SDS011;61141;46.204;19.774;2022-07-23T10:00:57;4.90;;;2.97;;
72960;SDS011;61141;46.204;19.774;2022-07-23T10:04:01;4.72;;;2.30;;
72960;SDS011;61141;46.204;19.774;2022-07-23T10:07:06;5.05;;;3.17;;
72960;SDS011;61141;46.204;19.774;2022-07-23T10:10:17;4.90;;;3.07;;
72960;SDS011;61141;46.204;19.774;2022-07-23T10:13:21;4.60;;;2.20;;
72960;SDS011;61141;46.204;19.774;2022-07-23T10:16:44;6.28;;;3.17;;
72960;SDS011;61141;46.204;19.774;2022-07-23T10:19:47;4.87;;;2.83;;
72960;SDS011;61141;46.204;19.774;2022-07-23T10:22:56;5.15;;;2.95;;
72960;SDS011;61141;46.204;19.774;2022-07-23T10:36:42;5.00;;;2.75;;
72960;SDS011;61141;46.204;19.774;2022-07-23T10:40:08;8.25;;;2.83;;
72960;SDS011;61141;46.204;19.774;2022-07-23T10:43:13;4.40;;;2.47;;
72960;SDS011;61141;46.204;19.774;2022-07-23T10:46:24;5.85;;;3.05;;
72960;SDS011;61141;46.204;19.774;2022-07-23T10:49:44;4.97;;;2.97;;
72960;SDS011;61141;46.204;19.774;2022-07-23T10:56:13;5.07;;;3.28;;
72960;SDS011;61141;46.204;19.774;2022-07-23T10:59:16;4.87;;;2.87;;
72960;SDS011;61141;46.204;19.774;2022-07-23T11:02:22;4.80;;;2.87;;
72960;SDS011;61141;46.204;19.774;2022-07-23T11:05:26;5.15;;;3.20;;
72960;SDS011;61141;46.204;19.774;2022-07-23T11:08:44;4.45;;;2.50;;
72960;SDS011;61141;46.204;19.774;2022-07-23T11:11:46;6.72;;;3.47;;
72960;SDS011;61141;46.204;19.774;2022-07-23T11:18:08;4.95;;;2.83;;
72960;SDS011;61141;46.204;19.774;2022-07-23T11:24:25;5.40;;;3.28;;
72960;SDS011;61141;46.204;19.774;2022-07-23T11:27:42;5.32;;;3.33;;
72960;SDS011;61141;46.204;19.774;2022-07-23T11:30:47;5.03;;;3.10;;
72960;SDS011;61141;46.204;19.774;2022-07-23T11:34:23;10.70;;;2.37;;
72960;SDS011;61141;46.204;19.774;2022-07-23T11:37:36;5.75;;;3.75;;
72960;SDS011;61141;46.204;19.774;2022-07-23T11:40:41;4.57;;;2.60;;
72960;SDS011;61141;46.204;19.774;2022-07-23T11:43:50;4.80;;;2.83;;
72960;SDS011;61141;46.204;19.774;2022-07-23T11:46:57;5.27;;;3.37;;
72960;SDS011;61141;46.204;19.774;2022-07-23T11:50:02;5.97;;;3.25;;
72960;SDS011;61141;46.204;19.774;2022-07-23T11:53:07;4.75;;;2.62;;
72960;SDS011;61141;46.204;19.774;2022-07-23T11:56:10;3.75;;;1.75;;
72960;SDS011;61141;46.204;19.774;2022-07-23T11:59:14;5.20;;;3.05;;
72960;SDS011;61141;46.204;19.774;2022-07-23T12:02:19;5.60;;;3.63;;
72960;SDS011;61141;46.204;19.774;2022-07-23T12:05:27;4.43;;;2.28;;
72960;SDS011;61141;46.204;19.774;2022-07-23T12:08:32;5.50;;;3.37;;
72960;SDS011;61141;46.204;19.774;2022-07-23T12:11:35;3.72;;;1.73;;
72960;SDS011;61141;46.204;19.774;2022-07-23T12:14:46;4.82;;;2.95;;
72960;SDS011;61141;46.204;19.774;2022-07-23T12:17:54;4.03;;;2.23;;
72960;SDS011;61141;46.204;19.774;2022-07-23T12:20:57;5.45;;;3.58;;
72960;SDS011;61141;46.204;19.774;2022-07-23T12:24:06;4.40;;;2.60;;
72960;SDS011;61141;46.204;19.774;2022-07-23T12:27:10;4.32;;;2.40;;
72960;SDS011;61141;46.204;19.774;2022-07-23T12:30:15;3.70;;;1.58;;
72960;SDS011;61141;46.204;19.774;2022-07-23T12:36:36;4.87;;;2.72;;
72960;SDS011;61141;46.204;19.774;2022-07-23T12:39:41;5.78;;;3.67;;
72960;SDS011;61141;46.204;19.774;2022-07-23T12:42:45;4.72;;;2.95;;
72960;SDS011;61141;46.204;19.774;2022-07-23T12:45:57;4.28;;;2.22;;
72960;SDS011;61141;46.204;19.774;2022-07-23T12:49:04;4.43;;;2.30;;
72960;SDS011;61141;46.204;19.774;2022-07-23T12:52:15;4.72;;;2.70;;
72960;SDS011;61141;46.204;19.774;2022-07-23T12:55:27;4.80;;;2.53;;
72960;SDS011;61141;46.204;19.774;2022-07-23T13:01:54;5.47;;;3.37;;
72960;SDS011;61141;46.204;19.774;2022-07-23T13:05:00;4.57;;;2.33;;
72960;SDS011;61141;46.204;19.774;2022-07-23T13:08:04;4.47;;;2.33;;
72960;SDS011;61141;46.204;19.774;2022-07-23T13:11:08;4.57;;;2.53;;
72960;SDS011;61141;46.204;19.774;2022-07-23T13:14:13;4.87;;;2.78;;
72960;SDS011;61141;46.204;19.774;2022-07-23T13:17:16;4.18;;;2.25;;
72960;SDS011;61141;46.204;19.774;2022-07-23T13:20:22;5.10;;;2.97;;
72960;SDS011;61141;46.204;19.774;2022-07-23T13:23:26;4.10;;;2.12;;
72960;SDS011;61141;46.204;19.774;2022-07-23T13:26:31;4.18;;;2.40;;
72960;SDS011;61141;46.204;19.774;2022-07-23T13:29:34;4.75;;;2.65;;
72960;SDS011;61141;46.204;19.774;2022-07-23T13:32:38;5.18;;;2.62;;
72960;SDS011;61141;46.204;19.774;2022-07-23T13:35:41;4.67;;;2.67;;
72960;SDS011;61141;46.204;19.774;2022-07-23T13:38:46;4.28;;;2.40;;
72960;SDS011;61141;46.204;19.774;2022-07-23T13:41:49;4.97;;;3.30;;
72960;SDS011;61141;46.204;19.774;2022-07-23T13:44:54;4.68;;;2.75;;
72960;SDS011;61141;46.204;19.774;2022-07-23T13:47:57;4.35;;;2.35;;
72960;SDS011;61141;46.204;19.774;2022-07-23T13:51:01;4.73;;;2.33;;
72960;SDS011;61141;46.204;19.774;2022-07-23T13:54:03;4.25;;;2.40;;
72960;SDS011;61141;46.204;19.774;2022-07-23T13:57:10;5.18;;;2.92;;
72960;SDS011;61141;46.204;19.774;2022-07-23T14:00:13;6.57;;;4.12;;
72960;SDS011;61141;46.204;19.774;2022-07-23T14:03:37;4.82;;;3.00;;
72960;SDS011;61141;46.204;19.774;2022-07-23T14:06:41;4.53;;;2.73;;
72960;SDS011;61141;46.204;19.774;2022-07-23T14:09:44;6.37;;;3.05;;
72960;SDS011;61141;46.204;19.774;2022-07-23T14:12:47;5.05;;;2.72;;
72960;SDS011;61141;46.204;19.774;2022-07-23T14:15:50;4.80;;;2.78;;
72960;SDS011;61141;46.204;19.774;2022-07-23T14:18:54;4.35;;;2.25;;
72960;SDS011;61141;46.204;19.774;2022-07-23T14:21:57;4.40;;;2.30;;
72960;SDS011;61141;46.204;19.774;2022-07-23T14:25:00;5.15;;;3.10;;
72960;SDS011;61141;46.204;19.774;2022-07-23T14:28:03;5.30;;;2.55;;
72960;SDS011;61141;46.204;19.774;2022-07-23T14:31:06;4.40;;;2.53;;
72960;SDS011;61141;46.204;19.774;2022-07-23T14:34:22;4.62;;;2.62;;
72960;SDS011;61141;46.204;19.774;2022-07-23T14:37:29;4.13;;;2.13;;
72960;SDS011;61141;46.204;19.774;2022-07-23T14:40:33;5.25;;;2.50;;
72960;SDS011;61141;46.204;19.774;2022-07-23T14:43:36;4.75;;;3.00;;
72960;SDS011;61141;46.204;19.774;2022-07-23T14:46:40;4.60;;;2.62;;
72960;SDS011;61141;46.204;19.774;2022-07-23T14:49:43;4.50;;;2.53;;
72960;SDS011;61141;46.204;19.774;2022-07-23T14:52:50;4.73;;;2.67;;
72960;SDS011;61141;46.204;19.774;2022-07-23T14:55:53;5.20;;;3.42;;
72960;SDS011;61141;46.204;19.774;2022-07-23T14:58:57;4.95;;;3.05;;
72960;SDS011;61141;46.204;19.774;2022-07-23T15:02:00;5.20;;;3.17;;
72960;SDS011;61141;46.204;19.774;2022-07-23T15:05:03;4.93;;;3.08;;
72960;SDS011;61141;46.204;19.774;2022-07-23T15:08:08;4.73;;;2.93;;
72960;SDS011;61141;46.204;19.774;2022-07-23T15:11:11;4.65;;;2.45;;
72960;SDS011;61141;46.204;19.774;2022-07-23T15:14:16;4.95;;;2.97;;
72960;SDS011;61141;46.204;19.774;2022-07-23T15:17:32;4.40;;;1.87;;
72960;SDS011;61141;46.204;19.774;2022-07-23T15:20:35;4.45;;;2.55;;
72960;SDS011;61141;46.204;19.774;2022-07-23T15:23:42;4.67;;;2.50;;
72960;SDS011;61141;46.204;19.774;2022-07-23T15:26:46;5.05;;;3.00;;
72960;SDS011;61141;46.204;19.774;2022-07-23T15:29:49;4.85;;;2.83;;
72960;SDS011;61141;46.204;19.774;2022-07-23T15:32:52;5.05;;;2.87;;
72960;SDS011;61141;46.204;19.774;2022-07-23T15:35:56;4.80;;;2.95;;
72960;SDS011;61141;46.204;19.774;2022-07-23T15:39:00;4.70;;;2.70;;
72960;SDS011;61141;46.204;19.774;2022-07-23T15:42:04;5.10;;;2.95;;
72960;SDS011;61141;46.204;19.774;2022-07-23T15:45:16;7.20;;;3.45;;
72960;SDS011;61141;46.204;19.774;2022-07-23T15:48:20;5.85;;;3.45;;
72960;SDS011;61141;46.204;19.774;2022-07-23T15:51:23;4.60;;;2.53;;
72960;SDS011;61141;46.204;19.774;2022-07-23T15:54:27;4.00;;;1.80;;
72960;SDS011;61141;46.204;19.774;2022-07-23T15:57:29;4.15;;;2.03;;
72960;SDS011;61141;46.204;19.774;2022-07-23T16:00:34;5.25;;;3.03;;
72960;SDS011;61141;46.204;19.774;2022-07-23T16:03:37;8.00;;;3.33;;
72960;SDS011;61141;46.204;19.774;2022-07-23T16:06:39;4.87;;;2.95;;
72960;SDS011;61141;46.204;19.774;2022-07-23T16:09:43;4.17;;;2.10;;
72960;SDS011;61141;46.204;19.774;2022-07-23T16:12:47;4.40;;;2.60;;
72960;SDS011;61141;46.204;19.774;2022-07-23T16:15:50;4.10;;;2.05;;
72960;SDS011;61141;46.204;19.774;2022-07-23T16:18:55;4.37;;;2.33;;
72960;SDS011;61141;46.204;19.774;2022-07-23T16:21:58;4.82;;;2.95;;
72960;SDS011;61141;46.204;19.774;2022-07-23T16:25:05;3.70;;;1.63;;
72960;SDS011;61141;46.204;19.774;2022-07-23T16:28:09;4.85;;;2.67;;
72960;SDS011;61141;46.204;19.774;2022-07-23T16:31:13;4.37;;;2.37;;
72960;SDS011;61141;46.204;19.774;2022-07-23T16:34:16;4.75;;;2.80;;
72960;SDS011;61141;46.204;19.774;2022-07-23T16:37:20;5.45;;;3.25;;
72960;SDS011;61141;46.204;19.774;2022-07-23T16:40:23;4.60;;;2.60;;
72960;SDS011;61141;46.204;19.774;2022-07-23T16:43:26;5.57;;;3.08;;
72960;SDS011;61141;46.204;19.774;2022-07-23T16:46:29;6.90;;;3.30;;
72960;SDS011;61141;46.204;19.774;2022-07-23T16:49:32;4.95;;;2.92;;
72960;SDS011;61141;46.204;19.774;2022-07-23T16:52:37;3.85;;;1.67;;
72960;SDS011;61141;46.204;19.774;2022-07-23T16:55:39;4.87;;;2.77;;
72960;SDS011;61141;46.204;19.774;2022-07-23T16:58:42;4.95;;;2.65;;
72960;SDS011;61141;46.204;19.774;2022-07-23T17:01:45;5.35;;;3.30;;
72960;SDS011;61141;46.204;19.774;2022-07-23T17:04:48;5.00;;;2.90;;
72960;SDS011;61141;46.204;19.774;2022-07-23T17:07:51;4.25;;;2.12;;
72960;SDS011;61141;46.204;19.774;2022-07-23T17:10:56;4.47;;;2.40;;
72960;SDS011;61141;46.204;19.774;2022-07-23T17:13:58;4.90;;;2.60;;
72960;SDS011;61141;46.204;19.774;2022-07-23T17:17:02;4.45;;;2.50;;
72960;SDS011;61141;46.204;19.774;2022-07-23T17:20:06;4.28;;;2.25;;
72960;SDS011;61141;46.204;19.774;2022-07-23T17:23:10;4.55;;;2.58;;
72960;SDS011;61141;46.204;19.774;2022-07-23T17:26:13;4.47;;;2.53;;
72960;SDS011;61141;46.204;19.774;2022-07-23T17:29:17;4.87;;;2.72;;
72960;SDS011;61141;46.204;19.774;2022-07-23T17:32:20;5.20;;;3.08;;
72960;SDS011;61141;46.204;19.774;2022-07-23T17:35:23;4.55;;;2.47;;
72960;SDS011;61141;46.204;19.774;2022-07-23T17:38:26;4.43;;;2.47;;
72960;SDS011;61141;46.204;19.774;2022-07-23T17:41:29;3.90;;;1.90;;
72960;SDS011;61141;46.204;19.774;2022-07-23T17:44:32;4.82;;;2.58;;
72960;SDS011;61141;46.204;19.774;2022-07-23T17:47:35;4.78;;;2.75;;
72960;SDS011;61141;46.204;19.774;2022-07-23T17:50:38;4.95;;;2.78;;
72960;SDS011;61141;46.204;19.774;2022-07-23T17:53:42;4.47;;;2.33;;
72960;SDS011;61141;46.204;19.774;2022-07-23T17:56:45;4.20;;;2.07;;
72960;SDS011;61141;46.204;19.774;2022-07-23T17:59:48;4.07;;;2.03;;
72960;SDS011;61141;46.204;19.774;2022-07-23T18:02:51;5.22;;;3.22;;
72960;SDS011;61141;46.204;19.774;2022-07-23T18:05:54;4.78;;;2.37;;
72960;SDS011;61141;46.204;19.774;2022-07-23T18:08:57;5.00;;;2.67;;
72960;SDS011;61141;46.204;19.774;2022-07-23T18:12:08;6.33;;;2.63;;
72960;SDS011;61141;46.204;19.774;2022-07-23T18:15:11;4.28;;;2.00;;
72960;SDS011;61141;46.204;19.774;2022-07-23T18:18:14;4.50;;;2.20;;
72960;SDS011;61141;46.204;19.774;2022-07-23T18:21:17;4.50;;;2.30;;
72960;SDS011;61141;46.204;19.774;2022-07-23T18:24:20;3.75;;;1.67;;
72960;SDS011;61141;46.204;19.774;2022-07-23T18:27:25;4.40;;;2.30;;
72960;SDS011;61141;46.204;19.774;2022-07-23T18:30:28;6.93;;;2.17;;
72960;SDS011;61141;46.204;19.774;2022-07-23T18:33:30;4.47;;;2.20;;
72960;SDS011;61141;46.204;19.774;2022-07-23T18:36:40;3.92;;;1.87;;
72960;SDS011;61141;46.204;19.774;2022-07-23T18:39:43;4.32;;;2.28;;
72960;SDS011;61141;46.204;19.774;2022-07-23T18:42:46;4.53;;;2.27;;
72960;SDS011;61141;46.204;19.774;2022-07-23T18:45:49;5.00;;;2.42;;
72960;SDS011;61141;46.204;19.774;2022-07-23T18:48:53;4.90;;;2.72;;
72960;SDS011;61141;46.204;19.774;2022-07-23T18:51:55;4.90;;;2.80;;
72960;SDS011;61141;46.204;19.774;2022-07-23T18:54:58;5.15;;;2.17;;